createdAt,value
2018-09-22T00:02:17.133Z,1.17
2018-09-22T00:04:44.808Z,0.80
2018-09-22T00:07:12.247Z,1.17
2018-09-22T00:09:39.685Z,1.10
2018-09-22T00:12:07.897Z,1.20
2018-09-22T00:14:35.335Z,0.80
2018-09-22T00:17:03.551Z,1.30
2018-09-22T00:19:31.004Z,0.83
2018-09-22T00:21:58.546Z,1.03
2018-09-22T00:24:25.893Z,0.93
2018-09-22T00:26:54.112Z,0.97
2018-09-22T00:29:21.551Z,0.83
2018-09-22T00:31:49.744Z,1.20
2018-09-22T00:34:17.182Z,1.07
2018-09-22T00:36:45.393Z,1.27
2018-09-22T00:39:12.847Z,1.13
2018-09-22T00:41:40.284Z,1.20
2018-09-22T00:44:08.493Z,1.00
2018-09-22T00:46:35.922Z,1.00
2018-09-22T00:49:04.121Z,1.30
2018-09-22T00:51:31.581Z,1.10
2018-09-22T00:53:59.020Z,1.27
2018-09-22T00:56:27.257Z,1.40
2018-09-22T00:58:54.697Z,1.03
2018-09-22T01:01:22.132Z,1.10
2018-09-22T01:03:50.340Z,1.10
2018-09-22T01:06:17.782Z,1.03
2018-09-22T01:08:45.988Z,1.00
2018-09-22T01:11:13.593Z,1.13
2018-09-22T01:13:41.032Z,1.00
2018-09-22T01:16:08.479Z,0.97
2018-09-22T01:18:36.169Z,1.03
2018-09-22T01:21:03.608Z,1.43
2018-09-22T01:23:31.041Z,1.23
2018-09-22T01:25:59.249Z,1.20
2018-09-22T01:28:26.696Z,0.97
2018-09-22T01:30:54.887Z,1.27
2018-09-22T01:33:22.333Z,1.03
2018-09-22T01:35:50.548Z,0.97
2018-09-22T01:38:17.984Z,0.90
2018-09-22T01:40:45.427Z,1.30
2018-09-22T01:43:13.738Z,0.90
2018-09-22T01:45:41.174Z,1.00
2018-09-22T01:48:09.382Z,1.00
2018-09-22T01:50:36.832Z,1.10
2018-09-22T01:53:04.269Z,1.20
2018-09-22T01:55:32.472Z,0.90
2018-09-22T01:57:59.936Z,1.20
2018-09-22T02:00:28.139Z,1.23
2018-09-22T02:02:55.583Z,1.10
2018-09-22T02:05:23.020Z,1.60
2018-09-22T02:07:51.221Z,0.87
2018-09-22T02:10:18.665Z,1.13
2018-09-22T02:12:46.874Z,1.00
2018-09-22T02:15:14.304Z,1.03
2018-09-22T02:17:42.513Z,0.80
2018-09-22T02:20:09.946Z,1.00
2018-09-22T02:22:38.156Z,0.90
2018-09-22T02:25:05.845Z,1.00
2018-09-22T02:27:33.272Z,1.10
2018-09-22T02:30:00.725Z,0.93
2018-09-22T02:32:28.949Z,1.17
2018-09-22T02:34:56.391Z,1.20
2018-09-22T02:37:23.837Z,1.30
2018-09-22T02:39:51.545Z,0.90
2018-09-22T02:42:19.007Z,0.90
2018-09-22T02:44:46.454Z,1.40
2018-09-22T02:47:14.400Z,1.50
2018-09-22T02:49:42.601Z,0.70
2018-09-22T02:52:10.042Z,0.90
2018-09-22T02:54:38.253Z,0.80
2018-09-22T02:57:05.693Z,1.10
2018-09-22T02:59:33.128Z,1.07
2018-09-22T03:02:00.577Z,0.97
2018-09-22T03:04:28.025Z,1.00
2018-09-22T03:06:55.464Z,1.00
2018-09-22T03:09:22.912Z,0.90
2018-09-22T03:11:50.341Z,0.70
2018-09-22T03:14:17.780Z,1.17
2018-09-22T03:16:45.977Z,1.20
2018-09-22T03:19:13.423Z,0.83
2018-09-22T03:21:41.625Z,0.90
2018-09-22T03:24:10.200Z,1.17
2018-09-22T03:26:37.642Z,1.00
2018-09-22T03:29:05.083Z,1.20
2018-09-22T03:31:32.869Z,1.10
2018-09-22T03:34:00.306Z,1.17
2018-09-22T03:36:27.732Z,1.10
2018-09-22T03:38:55.182Z,1.00
2018-09-22T03:41:22.632Z,1.10
2018-09-22T03:43:50.087Z,0.80
2018-09-22T03:46:17.525Z,1.00
2018-09-22T03:48:44.953Z,1.00
2018-09-22T03:51:13.174Z,1.07
2018-09-22T03:53:40.626Z,1.10
2018-09-22T03:56:08.087Z,0.90
2018-09-22T03:58:35.549Z,1.10
2018-09-22T04:01:03.025Z,0.90
2018-09-22T04:03:30.475Z,0.67
2018-09-22T04:05:58.174Z,0.90
2018-09-22T04:08:26.392Z,1.07
2018-09-22T04:10:54.592Z,0.93
2018-09-22T04:13:22.060Z,0.90
2018-09-22T04:15:49.497Z,1.10
2018-09-22T04:18:17.706Z,0.90
2018-09-22T04:20:45.145Z,0.90
2018-09-22T04:23:13.363Z,0.90
2018-09-22T04:25:40.799Z,0.80
2018-09-22T04:28:08.246Z,1.07
2018-09-22T04:30:36.457Z,0.87
2018-09-22T04:33:03.906Z,1.20
2018-09-22T04:35:32.125Z,1.10
2018-09-22T04:37:59.573Z,0.93
2018-09-22T04:40:27.000Z,1.03
2018-09-22T04:42:55.209Z,1.20
2018-09-22T04:45:22.653Z,0.93
2018-09-22T04:47:50.092Z,1.00
2018-09-22T04:50:18.293Z,0.80
2018-09-22T04:52:45.730Z,1.00
2018-09-22T04:55:13.169Z,0.90
2018-09-22T04:57:40.596Z,1.10
2018-09-22T05:00:08.041Z,0.67
2018-09-22T05:02:36.247Z,1.10
2018-09-22T05:05:03.678Z,1.23
2018-09-22T05:07:31.905Z,1.00
2018-09-22T05:09:59.344Z,1.07
2018-09-22T05:12:26.781Z,1.20
2018-09-22T05:14:55.002Z,0.80
2018-09-22T05:17:22.779Z,1.10
2018-09-22T05:19:50.214Z,1.20
2018-09-22T05:22:17.645Z,1.10
2018-09-22T05:24:45.886Z,0.90
2018-09-22T05:27:13.296Z,0.90
2018-09-22T05:29:41.517Z,0.90
2018-09-22T05:32:08.961Z,0.80
2018-09-22T05:34:36.400Z,1.10
2018-09-22T05:37:04.613Z,1.00
2018-09-22T05:39:32.063Z,0.90
2018-09-22T05:41:59.760Z,0.83
2018-09-22T05:44:27.197Z,0.97
2018-09-22T05:46:54.645Z,0.90
2018-09-22T05:49:22.089Z,1.00
2018-09-22T05:51:50.296Z,1.07
2018-09-22T05:54:17.734Z,1.07
2018-09-22T05:56:45.939Z,0.87
2018-09-22T05:59:13.369Z,1.40
2018-09-22T06:01:40.962Z,1.00
2018-09-22T06:04:08.392Z,1.00
2018-09-22T06:06:35.827Z,1.03
2018-09-22T06:09:03.281Z,1.13
2018-09-22T06:11:30.720Z,0.90
2018-09-22T06:13:58.157Z,1.50
2018-09-22T06:16:26.378Z,1.10
2018-09-22T06:18:53.820Z,1.13
2018-09-22T06:21:21.252Z,0.90
2018-09-22T06:23:49.707Z,1.23
2018-09-22T06:26:17.099Z,0.90
2018-09-22T06:28:45.327Z,1.30
2018-09-22T06:31:13.005Z,1.37
2018-09-22T06:33:40.440Z,1.00
2018-09-22T06:36:07.872Z,1.27
2018-09-22T06:38:36.083Z,1.43
2018-09-22T06:41:03.511Z,1.20
2018-09-22T06:43:31.712Z,0.73
2018-09-22T06:45:59.157Z,1.20
2018-09-22T06:48:27.365Z,1.30
2018-09-22T06:50:54.796Z,1.07
2018-09-22T06:53:23.018Z,1.10
2018-09-22T06:55:50.456Z,1.40
2018-09-22T06:58:17.892Z,0.80
2018-09-22T07:00:45.329Z,2.10
2018-09-22T07:03:12.773Z,1.10
2018-09-22T07:05:40.218Z,1.10
2018-09-22T07:08:07.663Z,1.07
2018-09-22T07:10:35.860Z,1.00
2018-09-22T07:13:03.302Z,1.10
2018-09-22T07:15:31.511Z,1.10
2018-09-22T07:17:58.952Z,1.33
2018-09-22T07:20:26.388Z,1.03
2018-09-22T07:22:59.502Z,0.80
2018-09-22T07:25:27.713Z,0.73
2018-09-22T07:27:55.128Z,1.00
2018-09-22T07:30:23.343Z,1.03
2018-09-22T07:32:50.777Z,0.90
2018-09-22T07:35:18.985Z,1.20
2018-09-22T07:37:46.533Z,1.10
2018-09-22T07:40:13.972Z,1.00
2018-09-22T07:42:41.404Z,1.60
2018-09-22T07:45:09.064Z,1.00
2018-09-22T07:47:36.503Z,1.07
2018-09-22T07:50:03.932Z,1.10
2018-09-22T07:52:32.151Z,1.03
2018-09-22T07:54:59.589Z,0.93
2018-09-22T07:57:27.792Z,1.10
2018-09-22T07:59:55.250Z,1.07
2018-09-22T08:02:22.693Z,1.03
2018-09-22T08:04:50.900Z,1.00
2018-09-22T08:07:18.328Z,1.23
2018-09-22T08:09:46.544Z,1.03
2018-09-22T08:12:14.220Z,1.00
2018-09-22T08:14:41.667Z,1.00
2018-09-22T08:17:09.101Z,1.00
2018-09-22T08:19:37.322Z,1.03
2018-09-22T08:22:04.759Z,1.40
2018-09-22T08:24:32.193Z,1.13
2018-09-22T08:27:00.581Z,1.27
2018-09-22T08:29:28.788Z,1.10
2018-09-22T08:31:56.220Z,1.23
2018-09-22T08:34:24.433Z,1.20
2018-09-22T08:36:51.996Z,1.10
2018-09-22T08:39:20.065Z,1.00
2018-09-22T08:41:47.513Z,1.07
2018-09-22T08:44:15.745Z,1.20
2018-09-22T08:46:43.169Z,1.23
2018-09-22T08:49:10.605Z,1.07
2018-09-22T08:51:38.043Z,1.60
2018-09-22T08:54:05.488Z,1.00
2018-09-22T08:56:32.930Z,0.90
2018-09-22T08:59:00.364Z,1.10
2018-09-22T09:01:28.588Z,0.90
2018-09-22T09:03:56.030Z,1.20
2018-09-22T09:06:23.469Z,0.97
2018-09-22T09:08:51.673Z,0.93
2018-09-22T09:11:19.139Z,1.07
2018-09-22T09:13:47.339Z,0.93
2018-09-22T09:16:14.748Z,1.50
2018-09-22T09:18:42.960Z,1.07
2018-09-22T09:21:10.401Z,1.00
2018-09-22T09:23:38.597Z,1.07
2018-09-22T09:26:07.383Z,1.63
2018-09-22T09:28:34.820Z,0.70
2018-09-22T09:31:02.277Z,1.20
2018-09-22T09:33:29.719Z,1.00
2018-09-22T09:35:57.167Z,1.10
2018-09-22T09:38:24.609Z,0.87
2018-09-22T09:40:52.061Z,1.10
2018-09-22T09:43:19.535Z,0.73
2018-09-22T09:45:46.964Z,0.90
2018-09-22T09:48:14.516Z,1.00
2018-09-22T09:50:41.957Z,0.80
2018-09-22T09:53:09.392Z,0.90
2018-09-22T09:55:36.956Z,1.10
2018-09-22T09:58:04.392Z,1.37
2018-09-22T10:00:32.597Z,0.70
2018-09-22T10:03:00.052Z,1.00
2018-09-22T10:05:27.492Z,1.10
2018-09-22T10:07:55.685Z,1.10
2018-09-22T10:10:23.158Z,1.20
2018-09-22T10:12:50.591Z,1.43
2018-09-22T10:15:18.817Z,1.13
2018-09-22T10:17:46.266Z,1.07
2018-09-22T10:20:13.761Z,0.97
2018-09-22T10:22:41.908Z,1.00
2018-09-22T10:25:09.371Z,0.80
2018-09-22T10:27:36.804Z,0.93
2018-09-22T10:30:05.242Z,1.03
2018-09-22T10:32:32.676Z,0.97
2018-09-22T10:35:00.106Z,0.80
2018-09-22T10:37:28.425Z,1.27
2018-09-22T10:39:55.865Z,1.07
2018-09-22T10:42:24.134Z,1.00
2018-09-22T10:44:51.661Z,1.10
2018-09-22T10:47:19.097Z,0.80
2018-09-22T10:49:46.531Z,1.00
2018-09-22T10:52:14.742Z,0.80
2018-09-22T10:54:42.173Z,0.80
2018-09-22T10:57:10.373Z,1.10
2018-09-22T10:59:37.808Z,1.13
2018-09-22T11:02:06.027Z,1.23
2018-09-22T11:04:33.457Z,1.10
2018-09-22T11:07:01.897Z,1.03
2018-09-22T11:09:29.337Z,1.00
2018-09-22T11:11:56.785Z,0.60
2018-09-22T11:14:24.224Z,0.97
2018-09-22T11:16:52.430Z,0.90
2018-09-22T11:19:19.869Z,0.90
2018-09-22T11:21:48.081Z,0.97
2018-09-22T11:24:15.517Z,1.00
2018-09-22T11:26:42.956Z,0.80
2018-09-22T11:29:10.400Z,0.90
2018-09-22T11:31:37.841Z,0.80
2018-09-22T11:34:05.512Z,1.10
2018-09-22T11:36:32.956Z,1.07
2018-09-22T11:39:00.389Z,1.47
2018-09-22T11:41:29.221Z,1.10
2018-09-22T11:43:56.660Z,1.00
2018-09-22T11:46:24.207Z,1.20
2018-09-22T11:48:51.542Z,0.80
2018-09-22T11:51:19.738Z,1.20
2018-09-22T11:53:47.169Z,1.00
2018-09-22T11:56:14.756Z,1.00
2018-09-22T11:58:42.192Z,1.27
2018-09-22T12:01:09.645Z,1.10
2018-09-22T12:03:37.092Z,1.07
2018-09-22T12:06:04.619Z,0.97
2018-09-22T12:08:32.750Z,0.90
2018-09-22T12:11:00.193Z,1.10
2018-09-22T12:13:27.632Z,1.13
2018-09-22T12:15:55.841Z,1.00
2018-09-22T12:18:23.276Z,1.00
2018-09-22T12:20:51.483Z,1.40
2018-09-22T12:23:18.908Z,0.80
2018-09-22T12:25:47.374Z,1.10
2018-09-22T12:28:14.832Z,1.10
2018-09-22T12:30:42.292Z,0.70
2018-09-22T12:33:09.745Z,1.07
2018-09-22T12:35:37.176Z,1.17
2018-09-22T12:38:04.624Z,1.13
2018-09-22T12:40:32.997Z,1.03
2018-09-22T12:43:01.201Z,1.03
2018-09-22T12:45:28.657Z,0.83
2018-09-22T12:47:56.107Z,0.90
2018-09-22T12:50:24.309Z,1.20
2018-09-22T12:52:51.746Z,0.97
2018-09-22T12:55:19.957Z,0.90
2018-09-22T12:57:47.398Z,1.00
2018-09-22T13:00:15.621Z,0.97
2018-09-22T13:02:43.051Z,0.93
2018-09-22T13:05:10.502Z,1.00
2018-09-22T13:07:38.096Z,1.10
2018-09-22T13:10:05.550Z,1.13
2018-09-22T13:12:32.978Z,1.33
2018-09-22T13:15:01.290Z,1.20
2018-09-22T13:17:28.722Z,1.40
2018-09-22T13:19:56.150Z,0.90
2018-09-22T13:22:23.800Z,1.23
2018-09-22T13:24:51.240Z,1.17
2018-09-22T13:27:18.685Z,0.80
2018-09-22T13:29:46.893Z,0.90
2018-09-22T13:32:14.339Z,0.90
2018-09-22T13:34:41.931Z,1.17
2018-09-22T13:37:09.411Z,1.00
2018-09-22T13:39:36.825Z,1.00
2018-09-22T13:42:04.289Z,1.10
2018-09-22T13:44:31.752Z,0.93
2018-09-22T13:46:59.191Z,0.77
2018-09-22T13:49:27.398Z,0.70
2018-09-22T13:51:54.833Z,1.07
2018-09-22T13:54:23.045Z,1.20
2018-09-22T13:56:50.510Z,1.20
2018-09-22T13:59:17.978Z,1.00
2018-09-22T14:01:45.442Z,1.40
2018-09-22T14:04:12.997Z,1.03
2018-09-22T14:06:40.461Z,1.00
2018-09-22T14:09:07.927Z,1.10
2018-09-22T14:11:35.557Z,0.97
2018-09-22T14:14:03.777Z,1.10
2018-09-22T14:16:31.237Z,0.80
2018-09-22T14:18:58.699Z,0.87
2018-09-22T14:21:26.222Z,1.00
2018-09-22T14:23:53.605Z,0.97
2018-09-22T14:26:22.037Z,0.90
2018-09-22T14:28:49.481Z,1.03
2018-09-22T14:31:18.741Z,1.03
2018-09-22T14:33:46.963Z,0.90
2018-09-22T14:36:14.422Z,1.20
2018-09-22T14:38:41.854Z,1.20
2018-09-22T14:41:10.069Z,1.33
2018-09-22T14:43:37.570Z,0.97
2018-09-22T14:46:05.921Z,0.80
2018-09-22T14:48:33.370Z,0.97
2018-09-22T14:51:00.819Z,1.20
2018-09-22T14:53:28.266Z,1.20
2018-09-22T14:55:56.477Z,0.83
2018-09-22T14:58:23.937Z,0.93
2018-09-22T15:00:51.380Z,0.70
2018-09-22T15:03:18.840Z,1.00
2018-09-22T15:05:47.064Z,0.70
2018-09-22T15:08:15.285Z,1.60
2018-09-22T15:10:43.509Z,1.10
2018-09-22T15:13:10.969Z,1.10
2018-09-22T15:15:38.414Z,1.03
2018-09-22T15:18:05.863Z,1.10
2018-09-22T15:20:34.074Z,0.90
2018-09-22T15:23:01.533Z,1.10
2018-09-22T15:25:29.001Z,1.00
2018-09-22T15:27:56.441Z,0.90
2018-09-22T15:30:24.648Z,1.10
2018-09-22T15:32:52.098Z,1.60
2018-09-22T15:35:19.560Z,1.37
2018-09-22T15:37:47.025Z,1.40
2018-09-22T15:40:15.053Z,1.00
2018-09-22T15:42:43.667Z,1.43
2018-09-22T15:45:11.877Z,1.20
2018-09-22T15:47:39.482Z,1.37
2018-09-22T15:50:06.915Z,1.17
2018-09-22T15:52:34.360Z,1.20
2018-09-22T15:55:02.062Z,1.07
2018-09-22T15:57:29.505Z,1.40
2018-09-22T15:59:56.952Z,1.10
2018-09-22T16:02:24.577Z,1.20
2018-09-22T16:04:52.018Z,1.20
2018-09-22T16:07:19.470Z,1.20
2018-09-22T16:09:46.931Z,1.37
2018-09-22T16:12:14.373Z,1.10
2018-09-22T16:14:41.836Z,1.40
2018-09-22T16:17:09.282Z,1.50
2018-09-22T16:19:36.725Z,1.53
2018-09-22T16:22:05.209Z,1.50
2018-09-22T16:24:33.416Z,1.80
2018-09-22T16:27:00.873Z,1.27
2018-09-22T16:29:28.387Z,1.37
2018-09-22T16:31:55.842Z,1.30
2018-09-22T16:34:23.280Z,1.10
2018-09-22T16:36:51.729Z,1.10
2018-09-22T16:39:19.957Z,1.10
2018-09-22T16:41:47.420Z,2.40
2018-09-22T16:44:15.778Z,1.60
2018-09-22T16:46:43.251Z,3.07
2018-09-22T16:49:10.773Z,2.37
2018-09-22T16:51:38.325Z,2.17
2018-09-22T16:54:05.769Z,1.90
2018-09-22T16:56:33.236Z,1.30
2018-09-22T16:59:00.685Z,1.43
2018-09-22T17:01:28.126Z,1.27
2018-09-22T17:03:55.578Z,1.43
2018-09-22T17:06:23.812Z,1.30
2018-09-22T17:08:51.264Z,1.30
2018-09-22T17:11:18.713Z,1.70
2018-09-22T17:13:46.162Z,1.67
2018-09-22T17:16:13.785Z,1.27
2018-09-22T17:18:41.225Z,1.80
2018-09-22T17:21:09.811Z,2.20
2018-09-22T17:23:37.261Z,1.73
2018-09-22T17:26:05.494Z,1.53
2018-09-22T17:28:33.697Z,1.97
2018-09-22T17:31:01.161Z,2.03
2018-09-22T17:33:28.609Z,1.50
2018-09-22T17:35:56.068Z,1.50
2018-09-22T17:38:25.336Z,1.20
2018-09-22T17:40:52.776Z,1.60
2018-09-22T17:43:21.402Z,1.30
2018-09-22T17:45:48.822Z,1.50
2018-09-22T17:48:16.272Z,1.30
2018-09-22T17:50:43.724Z,0.90
2018-09-22T17:53:11.172Z,1.00
2018-09-22T17:55:38.761Z,1.30
2018-09-22T17:58:06.225Z,1.20
2018-09-22T18:00:33.675Z,1.30
2018-09-22T18:03:01.122Z,1.27
2018-09-22T18:05:29.322Z,1.40
2018-09-22T18:07:56.761Z,1.70
2018-09-22T18:10:24.988Z,1.23
2018-09-22T18:12:52.428Z,1.23
2018-09-22T18:15:19.883Z,1.37
2018-09-22T18:17:47.329Z,1.20
2018-09-22T18:20:15.558Z,1.33
2018-09-22T18:22:42.994Z,1.23
2018-09-22T18:25:10.494Z,1.50
2018-09-22T18:27:38.437Z,1.30
2018-09-22T18:30:05.866Z,1.33
2018-09-22T18:32:34.076Z,1.17
2018-09-22T18:35:01.691Z,1.50
2018-09-22T18:37:29.131Z,1.57
2018-09-22T18:39:56.865Z,1.47
2018-09-22T18:42:25.022Z,1.30
2018-09-22T18:44:53.225Z,1.00
2018-09-22T18:47:20.664Z,1.30
2018-09-22T18:49:48.884Z,1.30
2018-09-22T18:52:16.340Z,1.40
2018-09-22T18:54:43.781Z,1.50
2018-09-22T18:57:11.229Z,1.00
2018-09-22T18:59:39.447Z,1.40
2018-09-22T19:02:06.881Z,1.40
2018-09-22T19:04:35.318Z,1.43
2018-09-22T19:07:02.761Z,1.00
2018-09-22T19:09:30.193Z,1.33
2018-09-22T19:11:58.553Z,1.10
2018-09-22T19:14:26.008Z,1.00
2018-09-22T19:16:53.470Z,1.13
2018-09-22T19:19:20.949Z,1.40
2018-09-22T19:21:48.381Z,1.40
2018-09-22T19:24:15.830Z,1.50
2018-09-22T19:26:43.298Z,1.60
2018-09-22T19:29:10.735Z,1.37
2018-09-22T19:31:38.181Z,1.60
2018-09-22T19:34:05.645Z,1.63
2018-09-22T19:36:33.090Z,1.30
2018-09-22T19:39:01.337Z,1.53
2018-09-22T19:41:29.037Z,1.90
2018-09-22T19:43:57.286Z,1.57
2018-09-22T19:46:24.719Z,1.33
2018-09-22T19:48:52.333Z,1.50
2018-09-22T19:51:19.775Z,1.80
2018-09-22T19:53:47.223Z,1.80
2018-09-22T19:56:14.773Z,1.20
2018-09-22T19:58:42.236Z,1.20
2018-09-22T20:01:09.695Z,1.60
2018-09-22T20:03:37.392Z,1.60
2018-09-22T20:06:04.855Z,1.50
2018-09-22T20:08:33.057Z,2.00
2018-09-22T20:11:00.522Z,1.77
2018-09-22T20:13:27.962Z,1.70
2018-09-22T20:15:55.413Z,1.57
2018-09-22T20:18:22.874Z,1.43
2018-09-22T20:20:50.318Z,2.00
2018-09-22T20:23:17.772Z,1.67
2018-09-22T20:25:45.230Z,2.23
2018-09-22T20:28:12.689Z,1.90
2018-09-22T20:30:40.307Z,1.80
2018-09-22T20:33:07.742Z,2.03
2018-09-22T20:35:35.198Z,2.00
2018-09-22T20:38:02.658Z,1.93
2018-09-22T20:40:30.121Z,2.13
2018-09-22T20:42:57.593Z,2.17
2018-09-22T20:45:25.044Z,2.87
2018-09-22T20:47:52.499Z,2.60
2018-09-22T20:50:19.937Z,1.90
2018-09-22T20:52:47.384Z,2.40
2018-09-22T20:55:14.849Z,2.67
2018-09-22T20:57:42.293Z,3.37
2018-09-22T21:00:09.734Z,2.60
2018-09-22T21:02:37.180Z,2.17
2018-09-22T21:05:04.629Z,2.30
2018-09-22T21:07:32.096Z,2.20
2018-09-22T21:10:00.316Z,2.43
2018-09-22T21:12:27.919Z,2.20
2018-09-22T21:14:55.365Z,2.70
2018-09-22T21:17:22.805Z,2.30
2018-09-22T21:19:50.257Z,2.53
2018-09-22T21:22:17.705Z,2.00
2018-09-22T21:24:45.161Z,2.30
2018-09-22T21:27:12.613Z,3.53
2018-09-22T21:29:40.990Z,2.33
2018-09-22T21:32:09.198Z,4.00
2018-09-22T21:34:36.636Z,2.50
2018-09-22T21:37:05.021Z,3.43
2018-09-22T21:39:32.502Z,3.33
2018-09-22T21:41:59.987Z,3.63
2018-09-22T21:44:27.444Z,3.27
2018-09-22T21:46:54.917Z,3.63
2018-09-22T21:49:23.135Z,3.43
2018-09-22T21:51:51.399Z,4.27
2018-09-22T21:54:18.832Z,4.07
2018-09-22T21:56:46.302Z,3.20
2018-09-22T21:59:14.525Z,3.33
2018-09-22T22:01:42.840Z,3.13
2018-09-22T22:04:10.310Z,3.40
2018-09-22T22:06:37.781Z,2.70
2018-09-22T22:09:05.257Z,2.80
2018-09-22T22:11:32.826Z,3.30
2018-09-22T22:14:00.280Z,3.30
2018-09-22T22:16:27.747Z,3.40
2018-09-22T22:18:55.197Z,2.93
2018-09-22T22:21:23.137Z,2.70
2018-09-22T22:23:50.584Z,2.90
2018-09-22T22:26:18.806Z,3.40
2018-09-22T22:28:47.174Z,2.80
2018-09-22T22:31:14.613Z,3.00
2018-09-22T22:33:42.820Z,3.30
2018-09-22T22:36:10.526Z,2.60
2018-09-22T22:38:37.972Z,2.83
2018-09-22T22:41:05.438Z,3.90
2018-09-22T22:43:33.605Z,3.47
2018-09-22T22:46:01.064Z,3.50
2018-09-22T22:48:28.501Z,3.50
2018-09-22T22:50:56.713Z,3.03
2018-09-22T22:53:24.179Z,4.20
2018-09-22T22:55:51.633Z,3.47
2018-09-22T22:58:19.315Z,3.40
2018-09-22T23:00:46.776Z,3.73
2018-09-22T23:03:14.221Z,4.63
2018-09-22T23:05:41.921Z,5.10
2018-09-22T23:08:09.357Z,4.30
2018-09-22T23:10:36.804Z,4.10
2018-09-22T23:13:04.378Z,4.23
2018-09-22T23:15:31.830Z,5.77
2018-09-22T23:17:59.278Z,5.27
2018-09-22T23:20:27.512Z,4.30
2018-09-22T23:22:54.941Z,3.80
2018-09-22T23:25:22.379Z,4.07
2018-09-22T23:27:50.721Z,5.33
2018-09-22T23:30:18.180Z,4.93
2018-09-22T23:32:45.621Z,4.60
2018-09-22T23:35:13.084Z,5.13
2018-09-22T23:37:40.538Z,4.23
2018-09-22T23:40:08.229Z,4.70
2018-09-22T23:42:35.671Z,4.60
2018-09-22T23:45:03.113Z,3.77
2018-09-22T23:47:31.577Z,5.33
2018-09-22T23:49:59.015Z,4.67
2018-09-22T23:52:26.460Z,4.73
2018-09-22T23:54:53.909Z,3.63
2018-09-22T23:57:21.355Z,4.60
2018-09-22T23:59:48.802Z,6.13
